.
WxDataArchive / Data Records for 2006-01-10
2006-01-09 January 2006 2006-01-11

Data Records for Tuesday, 10 January 2006

Time	Temp	Chill	HIndex	Humid	Dewpt	 Wind 	HiWind	WindDir	Rain 	Barom 
-----	----	-----	------	-----	-----	------	------	-------	-----	----- 
00:00	35.6	35.6	35.6	68	26.1	0	1	248	0.00	30.397 
00:05	35.6	35.6	35.6	66	25.4	1	3	248	0.00	30.397 
00:10	35.6	35.6	35.6	68	26.1	0	1	270	0.00	30.397 
00:15	35.6	35.6	35.6	68	26.1	1	3	270	0.00	30.402 
00:20	35.5	35.5	35.5	68	26.0	1	3	225	0.00	30.402 
00:25	35.5	35.5	35.5	67	25.6	1	2	270	0.00	30.402 
00:30	35.5	35.5	35.5	66	25.3	1	2	270	0.00	30.401 
00:35	35.5	35.5	35.5	66	25.3	0	1	270	0.00	30.401 
00:40	35.5	35.5	35.5	66	25.3	0	1	270	0.00	30.401 
00:45	35.5	35.5	35.5	67	25.6	0	0	---	0.00	30.400 
00:50	35.5	35.5	35.5	67	25.6	0	1	270	0.00	30.400 
00:55	35.3	35.3	35.3	68	25.8	0	0	---	0.00	30.400 
01:00	35.3	35.3	35.3	68	25.8	0	0	---	0.00	30.401 
01:05	35.2	35.2	35.2	68	25.7	0	0	---	0.00	30.401 
01:10	35.2	35.2	35.2	69	26.1	0	0	---	0.00	30.401 
01:15	35.0	35.0	35.0	68	25.5	0	0	---	0.00	30.395 
01:20	35.0	35.0	35.0	69	25.9	0	0	---	0.00	30.395 
01:25	34.9	34.9	34.9	69	25.8	0	0	---	0.00	30.395 
01:30	34.9	34.9	34.9	69	25.8	0	0	---	0.00	30.395 
01:35	34.7	34.7	34.7	70	25.9	0	0	---	0.00	30.395 
01:40	34.7	34.7	34.7	70	25.9	0	0	---	0.00	30.395 
01:45	34.6	34.6	34.6	70	25.8	0	0	---	0.00	30.395 
01:50	34.4	34.4	34.4	71	26.0	0	0	---	0.00	30.395 
01:55	34.4	34.4	34.4	72	26.3	0	0	---	0.00	30.395 
02:00	34.4	34.4	34.4	72	26.3	0	0	---	0.00	30.392 
02:05	34.4	34.4	34.4	72	26.3	0	0	---	0.00	30.392 
02:10	34.3	34.3	34.3	72	26.2	0	0	---	0.00	30.392 
02:15	34.3	34.3	34.3	71	25.9	0	0	---	0.00	30.398 
02:20	34.3	34.3	34.3	71	25.9	0	0	---	0.00	30.398 
02:25	34.3	34.3	34.3	71	25.9	0	0	---	0.00	30.398 
02:30	34.3	34.3	34.3	71	25.9	0	0	---	0.00	30.400 
02:35	34.3	34.3	34.3	73	26.6	0	0	---	0.00	30.400 
02:40	34.1	34.1	34.1	73	26.4	0	0	---	0.00	30.400 
02:45	34.1	34.1	34.1	73	26.4	0	0	---	0.00	30.403 
02:50	34.1	34.1	34.1	71	25.7	0	0	---	0.00	30.403 
02:55	34.1	34.1	34.1	72	26.0	0	0	---	0.00	30.403 
03:00	34.0	34.0	34.0	71	25.6	0	0	---	0.00	30.400 
03:05	34.0	34.0	34.0	72	25.9	0	0	---	0.00	30.400 
03:10	33.8	33.8	33.8	72	25.7	0	0	---	0.00	30.400 
03:15	33.7	33.7	33.7	73	26.0	0	0	---	0.00	30.403 
03:20	33.5	33.5	33.5	73	25.8	0	0	---	0.00	30.403 
03:25	33.4	33.4	33.4	73	25.7	0	0	---	0.00	30.403 
03:30	33.2	33.2	33.2	74	25.8	0	0	---	0.00	30.405 
03:35	33.2	33.2	33.2	74	25.8	0	0	---	0.00	30.405 
03:40	33.1	33.1	33.1	74	25.7	0	0	---	0.00	30.405 
03:45	33.1	33.1	33.1	74	25.7	0	0	---	0.00	30.402 
03:50	33.1	33.1	33.1	75	26.1	0	0	---	0.00	30.402 
03:55	33.1	33.1	33.1	75	26.1	0	0	---	0.00	30.402 
04:00	32.9	32.9	32.9	75	25.9	0	0	---	0.00	30.400 
04:05	32.8	32.8	32.8	75	25.8	0	0	---	0.00	30.400 
04:10	32.7	32.7	32.7	75	25.7	0	0	---	0.00	30.400 
04:15	32.4	32.4	32.4	76	25.7	0	0	---	0.00	30.394 
04:20	32.2	32.2	32.2	76	25.5	0	0	---	0.00	30.394 
04:25	31.9	31.9	31.9	77	25.5	0	0	---	0.00	30.394 
04:30	31.8	31.8	31.8	77	25.4	0	1	270	0.00	30.393 
04:35	31.6	31.6	31.6	78	25.5	0	0	---	0.00	30.393 
04:40	31.5	31.5	31.5	78	25.4	0	1	270	0.00	30.393 
04:45	31.3	31.3	31.3	78	25.3	0	0	---	0.00	30.390 
04:50	31.2	31.2	31.2	78	25.2	0	0	---	0.00	30.390 
04:55	31.0	31.0	31.0	77	24.7	0	0	---	0.00	30.390 
05:00	30.9	30.9	30.9	78	24.9	0	0	---	0.00	30.387 
05:05	30.6	30.6	30.6	78	24.6	0	0	---	0.00	30.387 
05:10	30.3	30.3	30.3	79	24.6	0	0	---	0.00	30.387 
05:15	30.0	30.0	30.0	79	24.3	0	1	270	0.00	30.390 
05:20	29.5	29.5	29.5	81	24.4	0	0	---	0.00	30.390 
05:25	29.3	29.3	29.3	81	24.2	0	0	---	0.00	30.390 
05:30	28.8	28.8	28.8	82	24.0	0	0	---	0.00	30.392 
05:35	28.5	28.5	28.5	81	23.4	0	0	---	0.00	30.392 
05:40	28.2	28.2	28.2	82	23.4	0	0	---	0.00	30.392 
05:45	27.9	27.9	27.9	83	23.4	0	0	---	0.00	30.394 
05:50	27.6	27.6	27.6	83	23.1	0	0	---	0.00	30.394 
05:55	27.5	27.5	27.5	84	23.3	0	0	---	0.00	30.394 
06:00	27.2	27.2	27.2	84	23.0	0	0	---	0.00	30.394 
06:05	27.0	27.0	27.0	85	23.1	0	0	---	0.00	30.394 
06:10	26.9	26.9	26.9	84	22.7	0	0	---	0.00	30.394 
06:15	26.7	26.7	26.7	84	22.5	0	0	---	0.00	30.396 
06:20	26.6	26.6	26.6	85	22.7	0	0	---	0.00	30.396 
06:25	26.4	26.4	26.4	86	22.8	0	0	---	0.00	30.396 
06:30	26.4	26.4	26.4	86	22.8	0	0	---	0.00	30.395 
06:35	26.4	26.4	26.4	86	22.8	0	0	---	0.00	30.395 
06:40	26.4	26.4	26.4	86	22.8	0	0	---	0.00	30.395 
06:45	26.4	26.4	26.4	86	22.8	0	0	---	0.00	30.394 
06:50	26.4	26.4	26.4	86	22.8	0	0	---	0.00	30.394 
06:55	26.4	26.4	26.4	86	22.8	0	0	---	0.00	30.394 
07:00	26.4	26.4	26.4	86	22.8	0	0	---	0.00	30.397 
07:05	26.4	26.4	26.4	85	22.5	0	0	---	0.00	30.397 
07:10	26.3	26.3	26.3	85	22.4	0	0	---	0.00	30.397 
07:15	26.0	26.0	26.0	85	22.1	0	0	---	0.00	30.395 
07:20	25.8	25.8	25.8	85	21.9	0	0	---	0.00	30.395 
07:25	25.8	25.8	25.8	86	22.2	0	0	---	0.00	30.395 
07:30	25.7	25.7	25.7	86	22.1	0	0	---	0.00	30.395 
07:35	25.6	25.6	25.6	86	22.0	0	0	---	0.00	30.395 
07:40	25.4	25.4	25.4	86	21.8	0	0	---	0.00	30.395 
07:45	25.3	25.3	25.3	86	21.7	0	0	---	0.00	30.400 
07:50	25.1	25.1	25.1	86	21.5	0	0	---	0.00	30.400 
07:55	25.0	25.0	25.0	87	21.7	0	0	---	0.00	30.400 
08:00	25.0	25.0	25.0	87	21.7	0	0	---	0.00	30.399 
08:05	24.8	24.8	24.8	87	21.5	0	0	---	0.00	30.399 
08:10	24.8	24.8	24.8	88	21.8	0	0	---	0.00	30.399 
08:15	24.8	24.8	24.8	88	21.8	0	0	---	0.00	30.400 
08:20	24.8	24.8	24.8	89	22.0	0	0	---	0.00	30.400 
08:25	25.0	25.0	25.0	89	22.2	0	0	---	0.00	30.400 
08:30	24.8	24.8	24.8	89	22.0	0	0	---	0.00	30.403 
08:35	25.0	25.0	25.0	89	22.2	0	0	---	0.00	30.403 
08:40	25.0	25.0	25.0	89	22.2	0	0	---	0.00	30.403 
08:45	25.0	25.0	25.0	89	22.2	0	0	---	0.00	30.409 
08:50	25.1	25.1	25.1	90	22.6	0	0	---	0.00	30.409 
08:55	25.3	25.3	25.3	90	22.8	0	0	---	0.00	30.409 
09:00	25.6	25.6	25.6	90	23.1	0	0	---	0.00	30.413 
09:05	25.7	25.7	25.7	90	23.2	0	0	---	0.00	30.413 
09:10	26.0	26.0	26.0	90	23.5	0	0	---	0.00	30.413 
09:15	26.3	26.3	26.3	90	23.8	0	0	---	0.00	30.411 
09:20	26.6	26.6	26.6	90	24.1	0	0	---	0.00	30.411 
09:25	26.9	26.9	26.9	90	24.4	0	0	---	0.00	30.411 
09:30	27.3	27.3	27.3	90	24.8	0	0	---	0.00	30.407 
09:35	27.8	27.8	27.8	90	25.3	0	0	---	0.00	30.407 
09:40	28.4	28.4	28.4	89	25.6	0	1	270	0.00	30.407 
09:45	28.8	28.8	28.8	88	25.7	0	1	270	0.00	30.405 
09:50	29.7	29.7	29.7	84	25.5	1	2	270	0.00	30.405 
09:55	30.6	30.6	30.6	82	25.8	1	2	135	0.00	30.405 
10:00	31.2	31.2	31.2	81	26.1	1	3	135	0.00	30.394 
10:05	31.6	31.6	31.6	81	26.5	1	2	112	0.00	30.394 
10:10	32.1	32.1	32.1	80	26.6	1	2	112	0.00	30.394 
10:15	32.4	32.4	32.4	79	26.6	2	4	112	0.00	30.391 
10:20	32.7	32.7	32.7	79	26.9	1	3	90	0.00	30.391 
10:25	33.1	33.1	33.1	79	27.3	2	4	90	0.00	30.391 
10:30	33.4	33.4	33.4	79	27.6	2	5	90	0.00	30.385 
10:35	33.7	33.7	33.7	78	27.6	2	4	112	0.00	30.385 
10:40	33.8	33.8	33.8	78	27.7	2	5	112	0.00	30.385 
10:45	34.0	34.0	34.0	78	27.9	2	5	90	0.00	30.376 
10:50	34.3	34.3	34.3	78	28.2	2	3	112	0.00	30.376 
10:55	34.4	34.4	34.4	78	28.3	2	4	90	0.00	30.376 
11:00	34.6	34.6	34.6	78	28.5	2	4	112	0.00	30.368 
11:05	34.9	34.9	34.9	78	28.7	2	5	90	0.00	30.368 
11:10	35.0	35.0	35.0	78	28.8	2	5	112	0.00	30.368 
11:15	35.2	35.2	35.2	78	29.0	2	4	90	0.00	30.362 
11:20	35.3	35.3	35.3	78	29.1	3	4	90	0.00	30.362 
11:25	35.5	35.5	35.5	78	29.3	1	4	90	0.00	30.362 
11:30	35.6	35.6	35.6	78	29.4	3	4	90	0.00	30.353 
11:35	35.8	35.8	35.8	78	29.6	2	4	90	0.00	30.353 
11:40	35.9	35.9	35.9	77	29.4	3	5	90	0.00	30.353 
11:45	36.0	36.0	36.0	77	29.5	3	6	90	0.00	30.337 
11:50	36.0	36.0	36.0	77	29.5	3	6	90	0.00	30.337 
11:55	36.0	36.0	36.0	77	29.5	3	6	90	0.00	30.337 
12:00	36.0	36.0	36.0	77	29.5	3	6	112	0.00	30.321 
12:05	36.2	36.2	36.2	78	30.0	3	9	112	0.00	30.321 
12:10	36.3	33.0	36.3	77	29.8	4	7	112	0.00	30.321 
12:15	36.3	33.0	36.3	77	29.8	4	9	90	0.00	30.311 
12:20	36.5	33.3	36.5	77	30.0	4	11	90	0.00	30.311 
12:25	36.6	33.4	36.6	77	30.1	4	7	112	0.00	30.311 
12:30	36.6	36.6	36.6	78	30.4	3	8	90	0.00	30.305 
12:35	36.9	33.7	36.9	76	30.1	4	10	112	0.00	30.305 
12:40	36.8	32.7	36.8	77	30.3	5	10	90	0.00	30.305 
12:45	36.8	33.6	36.8	77	30.3	4	7	90	0.00	30.291 
12:50	36.8	36.8	36.8	77	30.3	3	9	112	0.00	30.291 
12:55	36.9	36.9	36.9	77	30.4	3	6	90	0.00	30.291 
13:00	36.9	33.7	36.9	77	30.4	4	10	90	0.00	30.282 
13:05	36.9	33.7	36.9	77	30.4	4	10	112	0.00	30.282 
13:10	36.9	33.7	36.9	78	30.7	4	11	90	0.00	30.282 
13:15	37.0	33.9	37.0	78	30.8	4	10	112	0.00	30.275 
13:20	37.0	37.0	37.0	78	30.8	3	6	90	0.00	30.275 
13:25	37.0	33.9	37.0	77	30.5	4	10	90	0.00	30.275 
13:30	37.0	37.0	37.0	78	30.8	3	6	112	0.00	30.261 
13:35	37.3	37.3	37.3	79	31.4	2	6	90	0.00	30.261 
13:40	37.6	37.6	37.6	78	31.4	3	6	112	0.00	30.261 
13:45	37.8	37.8	37.8	78	31.6	3	5	90	0.00	30.258 
13:50	37.9	37.9	37.9	77	31.3	3	6	90	0.00	30.258 
13:55	38.0	38.0	38.0	77	31.4	3	6	112	0.00	30.258 
14:00	38.2	38.2	38.2	77	31.6	3	6	112	0.00	30.253 
14:05	38.3	38.3	38.3	77	31.7	2	5	112	0.00	30.253 
14:10	38.5	38.5	38.5	77	31.9	2	6	112	0.00	30.253 
14:15	38.6	38.6	38.6	77	32.0	2	6	112	0.00	30.244 
14:20	38.9	38.9	38.9	77	32.3	3	6	90	0.00	30.244 
14:25	38.9	36.0	38.9	76	32.0	4	7	90	0.00	30.244 
14:30	39.1	39.1	39.1	77	32.5	3	5	90	0.00	30.238 
14:35	39.2	39.2	39.2	75	32.0	3	5	112	0.00	30.238 
14:40	39.3	39.3	39.3	76	32.4	2	5	90	0.00	30.238 
14:45	39.3	39.3	39.3	76	32.4	2	7	112	0.00	30.233 
14:50	39.3	39.3	39.3	77	32.7	2	8	112	0.00	30.233 
14:55	39.3	39.3	39.3	76	32.4	3	7	112	0.00	30.233 
15:00	39.3	36.5	39.3	76	32.4	4	7	112	0.00	30.217 
15:05	39.2	36.4	39.2	76	32.3	4	6	90	0.00	30.217 
15:10	39.3	39.3	39.3	76	32.4	3	6	112	0.00	30.217 
15:15	39.3	36.5	39.3	76	32.4	4	10	112	0.00	30.209 
15:20	39.3	36.5	39.3	76	32.4	4	7	112	0.00	30.209 
15:25	39.2	39.2	39.2	77	32.6	3	7	112	0.00	30.209 
15:30	39.2	36.4	39.2	76	32.3	4	7	112	0.00	30.195 
15:35	39.2	35.5	39.2	77	32.6	5	11	90	0.00	30.195 
15:40	39.2	36.4	39.2	77	32.6	4	9	112	0.00	30.195 
15:45	39.2	35.5	39.2	77	32.6	5	12	112	0.00	30.180 
15:50	39.2	35.5	39.2	77	32.6	5	10	112	0.00	30.180 
15:55	39.2	35.5	39.2	77	32.6	5	11	90	0.00	30.180 
16:00	39.1	35.4	39.1	77	32.5	5	10	112	0.00	30.165 
16:05	39.1	35.4	39.1	77	32.5	5	10	90	0.00	30.165 
16:10	39.2	36.4	39.2	77	32.6	4	9	112	0.00	30.165 
16:15	39.2	36.4	39.2	77	32.6	4	9	112	0.00	30.164 
16:20	39.2	36.4	39.2	77	32.6	4	9	90	0.00	30.164 
16:25	39.2	35.5	39.2	77	32.6	5	9	90	0.00	30.164 
16:30	39.2	39.2	39.2	78	32.9	3	6	90	0.00	30.157 
16:35	39.2	39.2	39.2	78	32.9	3	7	112	0.00	30.157 
16:40	39.2	36.4	39.2	77	32.6	4	9	90	0.00	30.157 
16:45	39.2	36.4	39.2	78	32.9	4	7	112	0.00	30.160 
16:50	39.2	39.2	39.2	79	33.2	3	7	112	0.00	30.160 
16:55	39.1	36.3	39.1	80	33.5	4	7	112	0.00	30.160 
17:00	38.9	35.2	38.9	80	33.3	5	9	112	0.00	30.152 
17:05	38.8	35.9	38.8	81	33.5	4	10	90	0.00	30.152 
17:10	38.8	35.9	38.8	81	33.5	4	9	112	0.00	30.152 
17:15	38.8	35.9	38.8	82	33.8	4	8	112	0.00	30.136 
17:20	38.6	38.6	38.6	82	33.6	3	7	112	0.00	30.136 
17:25	38.6	35.7	38.6	83	33.9	4	10	90	0.00	30.136 
17:30	38.6	35.7	38.6	84	34.2	4	6	90	0.00	30.123 
17:35	38.5	38.5	38.5	84	34.1	3	5	90	0.00	30.123 
17:40	38.5	38.5	38.5	84	34.1	3	6	90	0.00	30.123 
17:45	38.5	38.5	38.5	85	34.4	3	7	90	0.00	30.122 
17:50	38.3	38.3	38.3	85	34.2	3	7	112	0.00	30.122 
17:55	38.3	38.3	38.3	85	34.2	3	7	90	0.00	30.122 
18:00	38.3	35.4	38.3	85	34.2	4	6	112	0.00	30.122 
18:05	38.5	35.6	38.5	85	34.4	4	9	90	0.00	30.122 
18:10	38.5	35.6	38.5	85	34.4	4	7	90	0.00	30.122 
18:15	38.5	38.5	38.5	85	34.4	3	6	90	0.00	30.112 
18:20	38.5	35.6	38.5	85	34.4	4	8	90	0.00	30.112 
18:25	38.5	38.5	38.5	85	34.4	3	5	90	0.00	30.112 
18:30	38.6	35.7	38.6	85	34.5	4	9	90	0.00	30.108 
18:35	38.6	38.6	38.6	85	34.5	3	6	112	0.00	30.108 
18:40	38.6	38.6	38.6	85	34.5	3	8	112	0.00	30.108 
18:45	38.6	38.6	38.6	85	34.5	3	6	90	0.00	30.120 
18:50	38.8	35.9	38.8	85	34.7	4	6	112	0.00	30.120 
18:55	38.8	35.9	38.8	86	35.0	4	6	90	0.00	30.120 
19:00	38.6	38.6	38.6	87	35.1	3	5	90	0.00	30.103 
19:05	38.5	35.6	38.5	87	35.0	4	6	90	0.00	30.103 
19:10	38.5	38.5	38.5	88	35.3	3	9	112	0.00	30.103 
19:15	38.5	35.6	38.5	88	35.3	4	10	90	0.00	30.092 
19:20	38.5	38.5	38.5	88	35.3	3	7	90	0.00	30.092 
19:25	38.3	38.3	38.3	88	35.1	3	6	112	0.00	30.092 
19:30	38.5	38.5	38.5	88	35.3	2	5	90	0.00	30.094 
19:35	38.5	38.5	38.5	88	35.3	2	5	90	0.00	30.094 
19:40	38.5	38.5	38.5	88	35.3	3	6	90	0.00	30.094 
19:45	38.5	38.5	38.5	88	35.3	3	6	90	0.00	30.090 
19:50	38.5	38.5	38.5	88	35.3	3	5	90	0.00	30.090 
19:55	38.6	38.6	38.6	88	35.4	3	6	90	0.00	30.090 
20:00	38.6	35.7	38.6	89	35.6	4	7	90	0.01	30.083 
20:05	38.5	38.5	38.5	89	35.5	3	7	112	0.00	30.083 
20:10	38.5	35.6	38.5	90	35.8	4	9	112	0.01	30.083 
20:15	38.3	35.4	38.3	91	35.9	4	7	90	0.00	30.070 
20:20	38.3	38.3	38.3	91	35.9	2	7	90	0.00	30.070 
20:25	38.3	35.4	38.3	91	35.9	4	13	90	0.00	30.070 
20:30	38.3	35.4	38.3	91	35.9	4	7	90	0.00	30.063 
20:35	38.3	38.3	38.3	91	35.9	3	5	112	0.00	30.063 
20:40	38.2	38.2	38.2	92	36.1	3	9	90	0.00	30.063 
20:45	38.3	38.3	38.3	92	36.2	3	6	90	0.00	30.072 
20:50	38.3	38.3	38.3	92	36.2	3	6	90	0.03	30.072 
20:55	38.3	38.3	38.3	92	36.2	3	6	112	0.06	30.072 
21:00	38.2	38.2	38.2	92	36.1	3	6	112	0.05	30.058 
21:05	38.2	38.2	38.2	93	36.4	3	9	90	0.02	30.058 
21:10	38.2	38.2	38.2	93	36.4	3	6	112	0.02	30.058 
21:15	38.2	38.2	38.2	93	36.4	3	5	112	0.00	30.050 
21:20	38.2	38.2	38.2	94	36.6	3	5	90	0.02	30.050 
21:25	38.3	38.3	38.3	94	36.7	2	5	112	0.00	30.050 
21:30	38.3	38.3	38.3	94	36.7	3	7	90	0.00	30.039 
21:35	38.3	38.3	38.3	94	36.7	3	7	90	0.00	30.039 
21:40	38.3	35.4	38.3	94	36.7	4	6	90	0.01	30.039 
21:45	38.3	38.3	38.3	94	36.7	3	6	90	0.00	30.028 
21:50	38.3	38.3	38.3	94	36.7	3	6	90	0.00	30.028 
21:55	38.5	38.5	38.5	94	36.9	3	5	90	0.00	30.028 
22:00	38.5	38.5	38.5	94	36.9	3	6	90	0.00	30.021 
22:05	38.3	38.3	38.3	94	36.7	3	9	112	0.00	30.021 
22:10	38.3	38.3	38.3	94	36.7	3	5	90	0.00	30.021 
22:15	38.3	38.3	38.3	94	36.7	3	6	112	0.01	30.014 
22:20	38.3	38.3	38.3	94	36.7	2	5	112	0.00	30.014 
22:25	38.3	38.3	38.3	94	36.7	2	4	112	0.00	30.014 
22:30	38.3	38.3	38.3	94	36.7	1	3	90	0.00	30.016 
22:35	38.5	38.5	38.5	94	36.9	1	4	90	0.00	30.016 
22:40	38.5	38.5	38.5	94	36.9	2	5	90	0.00	30.016 
22:45	38.5	38.5	38.5	94	36.9	2	3	90	0.00	30.008 
22:50	38.5	38.5	38.5	94	36.9	2	3	90	0.00	30.008 
22:55	38.5	38.5	38.5	94	36.9	2	4	112	0.00	30.008 
23:00	38.5	38.5	38.5	95	37.2	2	3	90	0.00	30.012 
23:05	38.6	38.6	38.6	95	37.3	1	3	90	0.00	30.012 
23:10	38.6	38.6	38.6	95	37.3	1	2	90	0.00	30.012 
23:15	38.8	38.8	38.8	95	37.5	1	2	90	0.00	30.004 
23:20	38.9	38.9	38.9	95	37.6	1	3	90	0.00	30.004 
23:25	39.1	39.1	39.1	95	37.8	1	3	90	0.00	30.004 
23:30	39.2	39.2	39.2	95	37.9	1	3	90	0.01	29.999 
23:35	39.2	39.2	39.2	95	37.9	1	3	90	0.00	29.999 
23:40	39.2	39.2	39.2	95	37.9	1	3	90	0.00	29.999 
23:45	39.2	39.2	39.2	95	37.9	1	2	90	0.00	29.987 
23:50	39.2	39.2	39.2	95	37.9	1	3	90	0.00	29.987 
23:55	39.2	39.2	39.2	95	37.9	1	3	90	0.00	29.987 

CoCoRaHS
IN-AL-39
A2 Web Hosting
Creative Commons License
GoDaddy
Look for:

loaded 2017-12-12 16:55:44 • last modified 2010-11-18 10:43:29
Privacy PolicyDisclaimer
• wx.awcolley.com is powered by PmWiki v.2002016 •
• all content (unless otherwise noted) © 2017 A W Colley